sensor_id;sensor_type;location;lat;lon;timestamp;temperature;humidity
12688;DHT22;6408;59.388;17.798;2023-01-26T00:00:56;4.50;99.90
12688;DHT22;6408;59.388;17.798;2023-01-26T00:03:24;4.50;99.90
12688;DHT22;6408;59.388;17.798;2023-01-26T00:05:52;4.50;99.90
12688;DHT22;6408;59.388;17.798;2023-01-26T00:08:19;4.50;99.90
12688;DHT22;6408;59.388;17.798;2023-01-26T00:10:49;4.60;99.90
12688;DHT22;6408;59.388;17.798;2023-01-26T00:13:17;4.60;99.90
12688;DHT22;6408;59.388;17.798;2023-01-26T00:15:46;4.50;99.90
12688;DHT22;6408;59.388;17.798;2023-01-26T00:18:14;4.50;99.90
12688;DHT22;6408;59.388;17.798;2023-01-26T00:20:41;4.60;99.90
12688;DHT22;6408;59.388;17.798;2023-01-26T00:23:09;4.60;99.90
12688;DHT22;6408;59.388;17.798;2023-01-26T00:25:37;4.60;99.90
12688;DHT22;6408;59.388;17.798;2023-01-26T00:28:08;4.60;99.90
12688;DHT22;6408;59.388;17.798;2023-01-26T00:30:35;4.50;99.90
12688;DHT22;6408;59.388;17.798;2023-01-26T00:33:03;4.50;99.90
12688;DHT22;6408;59.388;17.798;2023-01-26T00:35:30;4.50;99.90
12688;DHT22;6408;59.388;17.798;2023-01-26T00:37:58;4.50;99.90
12688;DHT22;6408;59.388;17.798;2023-01-26T00:40:25;4.50;99.90
12688;DHT22;6408;59.388;17.798;2023-01-26T00:42:53;4.50;99.90
12688;DHT22;6408;59.388;17.798;2023-01-26T00:45:22;4.50;99.90
12688;DHT22;6408;59.388;17.798;2023-01-26T00:47:50;4.50;99.90
12688;DHT22;6408;59.388;17.798;2023-01-26T00:50:17;4.50;99.90
12688;DHT22;6408;59.388;17.798;2023-01-26T00:52:45;4.50;99.90
12688;DHT22;6408;59.388;17.798;2023-01-26T00:55:13;4.50;99.90
12688;DHT22;6408;59.388;17.798;2023-01-26T00:57:40;4.50;99.90
12688;DHT22;6408;59.388;17.798;2023-01-26T01:00:09;4.40;99.90
12688;DHT22;6408;59.388;17.798;2023-01-26T01:02:41;4.40;99.90
12688;DHT22;6408;59.388;17.798;2023-01-26T01:05:09;4.50;99.90
12688;DHT22;6408;59.388;17.798;2023-01-26T01:07:36;4.50;99.90
12688;DHT22;6408;59.388;17.798;2023-01-26T01:10:04;4.50;99.90
12688;DHT22;6408;59.388;17.798;2023-01-26T01:12:33;4.50;99.90
12688;DHT22;6408;59.388;17.798;2023-01-26T01:15:01;4.40;99.90
12688;DHT22;6408;59.388;17.798;2023-01-26T01:17:28;4.40;99.90
12688;DHT22;6408;59.388;17.798;2023-01-26T01:19:57;4.40;99.90
12688;DHT22;6408;59.388;17.798;2023-01-26T01:22:25;4.40;99.90
12688;DHT22;6408;59.388;17.798;2023-01-26T01:24:52;4.40;99.90
12688;DHT22;6408;59.388;17.798;2023-01-26T01:27:20;4.40;99.90
12688;DHT22;6408;59.388;17.798;2023-01-26T01:29:49;4.40;99.90
12688;DHT22;6408;59.388;17.798;2023-01-26T01:32:17;4.40;99.90
12688;DHT22;6408;59.388;17.798;2023-01-26T01:34:46;4.40;99.90
12688;DHT22;6408;59.388;17.798;2023-01-26T01:37:16;4.40;99.90
12688;DHT22;6408;59.388;17.798;2023-01-26T01:39:43;4.40;99.90
12688;DHT22;6408;59.388;17.798;2023-01-26T01:42:11;4.40;99.90
12688;DHT22;6408;59.388;17.798;2023-01-26T01:44:39;4.40;99.90
12688;DHT22;6408;59.388;17.798;2023-01-26T01:47:10;4.50;99.90
12688;DHT22;6408;59.388;17.798;2023-01-26T01:49:43;4.50;99.90
12688;DHT22;6408;59.388;17.798;2023-01-26T01:52:15;4.50;99.90
12688;DHT22;6408;59.388;17.798;2023-01-26T01:54:46;4.50;99.90
12688;DHT22;6408;59.388;17.798;2023-01-26T01:57:21;4.50;99.90
12688;DHT22;6408;59.388;17.798;2023-01-26T01:59:55;4.50;99.90
12688;DHT22;6408;59.388;17.798;2023-01-26T02:02:24;4.50;99.90
12688;DHT22;6408;59.388;17.798;2023-01-26T02:04:53;4.40;99.90
12688;DHT22;6408;59.388;17.798;2023-01-26T02:07:25;4.40;99.90
12688;DHT22;6408;59.388;17.798;2023-01-26T02:09:54;4.50;99.90
12688;DHT22;6408;59.388;17.798;2023-01-26T02:12:39;4.40;99.90
12688;DHT22;6408;59.388;17.798;2023-01-26T02:15:08;4.40;99.90
12688;DHT22;6408;59.388;17.798;2023-01-26T02:17:36;4.40;99.90
12688;DHT22;6408;59.388;17.798;2023-01-26T02:20:09;4.40;99.90
12688;DHT22;6408;59.388;17.798;2023-01-26T02:22:46;4.40;99.90
12688;DHT22;6408;59.388;17.798;2023-01-26T02:25:24;4.40;99.90
12688;DHT22;6408;59.388;17.798;2023-01-26T02:27:56;4.40;99.90
12688;DHT22;6408;59.388;17.798;2023-01-26T02:30:23;4.40;99.90
12688;DHT22;6408;59.388;17.798;2023-01-26T02:32:52;4.40;99.90
12688;DHT22;6408;59.388;17.798;2023-01-26T02:35:19;4.40;99.90
12688;DHT22;6408;59.388;17.798;2023-01-26T02:37:47;4.40;99.90
12688;DHT22;6408;59.388;17.798;2023-01-26T02:40:20;4.40;99.90
12688;DHT22;6408;59.388;17.798;2023-01-26T02:42:52;4.40;99.90
12688;DHT22;6408;59.388;17.798;2023-01-26T02:45:21;4.40;99.90
12688;DHT22;6408;59.388;17.798;2023-01-26T02:47:50;4.40;99.90
12688;DHT22;6408;59.388;17.798;2023-01-26T02:50:17;4.40;99.90
12688;DHT22;6408;59.388;17.798;2023-01-26T02:52:43;4.40;99.90
12688;DHT22;6408;59.388;17.798;2023-01-26T02:55:11;4.40;99.90
12688;DHT22;6408;59.388;17.798;2023-01-26T02:57:54;4.40;99.90
12688;DHT22;6408;59.388;17.798;2023-01-26T03:00:26;4.40;99.90
12688;DHT22;6408;59.388;17.798;2023-01-26T03:02:56;4.40;99.90
12688;DHT22;6408;59.388;17.798;2023-01-26T03:05:24;4.40;99.90
12688;DHT22;6408;59.388;17.798;2023-01-26T03:07:52;4.40;99.90
12688;DHT22;6408;59.388;17.798;2023-01-26T03:10:19;4.40;99.90
12688;DHT22;6408;59.388;17.798;2023-01-26T03:12:48;4.40;99.90
12688;DHT22;6408;59.388;17.798;2023-01-26T03:15:16;4.50;99.90
12688;DHT22;6408;59.388;17.798;2023-01-26T03:18:19;4.40;99.90
12688;DHT22;6408;59.388;17.798;2023-01-26T03:21:08;4.40;99.90
12688;DHT22;6408;59.388;17.798;2023-01-26T03:23:53;4.50;99.90
12688;DHT22;6408;59.388;17.798;2023-01-26T03:26:38;4.40;99.90
12688;DHT22;6408;59.388;17.798;2023-01-26T03:29:22;4.40;99.90
12688;DHT22;6408;59.388;17.798;2023-01-26T03:31:51;4.40;99.90
12688;DHT22;6408;59.388;17.798;2023-01-26T03:34:21;4.50;99.90
12688;DHT22;6408;59.388;17.798;2023-01-26T03:36:48;4.50;99.90
12688;DHT22;6408;59.388;17.798;2023-01-26T03:39:16;4.50;99.90
12688;DHT22;6408;59.388;17.798;2023-01-26T03:41:57;4.40;99.90
12688;DHT22;6408;59.388;17.798;2023-01-26T03:44:42;4.40;99.90
12688;DHT22;6408;59.388;17.798;2023-01-26T03:47:26;4.40;99.90
12688;DHT22;6408;59.388;17.798;2023-01-26T03:50:13;4.40;99.90
12688;DHT22;6408;59.388;17.798;2023-01-26T03:52:58;4.40;99.90
12688;DHT22;6408;59.388;17.798;2023-01-26T03:55:42;4.40;99.90
12688;DHT22;6408;59.388;17.798;2023-01-26T03:58:26;4.40;99.90
12688;DHT22;6408;59.388;17.798;2023-01-26T04:00:54;4.40;99.90
12688;DHT22;6408;59.388;17.798;2023-01-26T04:03:22;4.40;99.90
12688;DHT22;6408;59.388;17.798;2023-01-26T04:06:08;4.40;99.90
12688;DHT22;6408;59.388;17.798;2023-01-26T04:08:53;4.40;99.90
12688;DHT22;6408;59.388;17.798;2023-01-26T04:11:21;4.40;99.90
12688;DHT22;6408;59.388;17.798;2023-01-26T04:13:48;4.40;99.90
12688;DHT22;6408;59.388;17.798;2023-01-26T04:16:33;4.40;99.90
12688;DHT22;6408;59.388;17.798;2023-01-26T04:19:17;4.40;99.90
12688;DHT22;6408;59.388;17.798;2023-01-26T04:22:04;4.40;99.90
12688;DHT22;6408;59.388;17.798;2023-01-26T04:24:32;4.40;99.90
12688;DHT22;6408;59.388;17.798;2023-01-26T04:26:59;4.40;99.90
12688;DHT22;6408;59.388;17.798;2023-01-26T04:29:27;4.40;99.90
12688;DHT22;6408;59.388;17.798;2023-01-26T04:31:57;4.40;99.90
12688;DHT22;6408;59.388;17.798;2023-01-26T04:34:25;4.40;99.90
12688;DHT22;6408;59.388;17.798;2023-01-26T04:36:53;4.40;99.90
12688;DHT22;6408;59.388;17.798;2023-01-26T04:39:22;4.40;99.90
12688;DHT22;6408;59.388;17.798;2023-01-26T04:41:50;4.40;99.90
12688;DHT22;6408;59.388;17.798;2023-01-26T04:44:17;4.40;99.90
12688;DHT22;6408;59.388;17.798;2023-01-26T04:46:45;4.40;99.90
12688;DHT22;6408;59.388;17.798;2023-01-26T04:49:13;4.40;99.90
12688;DHT22;6408;59.388;17.798;2023-01-26T04:51:41;4.40;99.90
12688;DHT22;6408;59.388;17.798;2023-01-26T04:54:08;4.40;99.90
12688;DHT22;6408;59.388;17.798;2023-01-26T04:56:38;4.40;99.90
12688;DHT22;6408;59.388;17.798;2023-01-26T04:59:06;4.40;99.90
12688;DHT22;6408;59.388;17.798;2023-01-26T05:01:34;4.40;99.90
12688;DHT22;6408;59.388;17.798;2023-01-26T05:04:03;4.30;99.90
12688;DHT22;6408;59.388;17.798;2023-01-26T05:06:31;4.30;99.90
12688;DHT22;6408;59.388;17.798;2023-01-26T05:08:59;4.30;99.90
12688;DHT22;6408;59.388;17.798;2023-01-26T05:11:26;4.30;99.90
12688;DHT22;6408;59.388;17.798;2023-01-26T05:13:56;4.40;99.90
12688;DHT22;6408;59.388;17.798;2023-01-26T05:16:23;4.40;99.90
12688;DHT22;6408;59.388;17.798;2023-01-26T05:18:52;4.40;99.90
12688;DHT22;6408;59.388;17.798;2023-01-26T05:21:20;4.40;99.90
12688;DHT22;6408;59.388;17.798;2023-01-26T05:23:49;4.40;99.90
12688;DHT22;6408;59.388;17.798;2023-01-26T05:26:16;4.40;99.90
12688;DHT22;6408;59.388;17.798;2023-01-26T05:28:44;4.40;99.90
12688;DHT22;6408;59.388;17.798;2023-01-26T05:31:13;4.40;99.90
12688;DHT22;6408;59.388;17.798;2023-01-26T05:33:41;4.40;99.90
12688;DHT22;6408;59.388;17.798;2023-01-26T05:36:09;4.40;99.90
12688;DHT22;6408;59.388;17.798;2023-01-26T05:38:36;4.40;99.90
12688;DHT22;6408;59.388;17.798;2023-01-26T05:41:06;4.40;99.90
12688;DHT22;6408;59.388;17.798;2023-01-26T05:43:33;4.40;99.90
12688;DHT22;6408;59.388;17.798;2023-01-26T05:46:01;4.30;99.90
12688;DHT22;6408;59.388;17.798;2023-01-26T05:48:30;4.30;99.90
12688;DHT22;6408;59.388;17.798;2023-01-26T05:50:58;4.30;99.90
12688;DHT22;6408;59.388;17.798;2023-01-26T05:53:26;4.30;99.90
12688;DHT22;6408;59.388;17.798;2023-01-26T05:55:53;4.30;99.90
12688;DHT22;6408;59.388;17.798;2023-01-26T05:58:21;4.30;99.90
12688;DHT22;6408;59.388;17.798;2023-01-26T06:00:49;4.30;99.90
12688;DHT22;6408;59.388;17.798;2023-01-26T06:03:16;4.30;99.90
12688;DHT22;6408;59.388;17.798;2023-01-26T06:05:51;4.30;99.90
12688;DHT22;6408;59.388;17.798;2023-01-26T06:08:19;4.30;99.90
12688;DHT22;6408;59.388;17.798;2023-01-26T06:10:46;4.30;99.90
12688;DHT22;6408;59.388;17.798;2023-01-26T06:13:14;4.40;99.90
12688;DHT22;6408;59.388;17.798;2023-01-26T06:15:41;4.30;99.90
12688;DHT22;6408;59.388;17.798;2023-01-26T06:18:09;4.30;99.90
12688;DHT22;6408;59.388;17.798;2023-01-26T06:20:36;4.30;99.90
12688;DHT22;6408;59.388;17.798;2023-01-26T06:23:06;4.30;99.90
12688;DHT22;6408;59.388;17.798;2023-01-26T06:25:37;4.30;99.90
12688;DHT22;6408;59.388;17.798;2023-01-26T06:28:05;4.30;99.90
12688;DHT22;6408;59.388;17.798;2023-01-26T06:30:33;4.30;99.90
12688;DHT22;6408;59.388;17.798;2023-01-26T06:33:01;4.30;99.90
12688;DHT22;6408;59.388;17.798;2023-01-26T06:35:28;4.30;99.90
12688;DHT22;6408;59.388;17.798;2023-01-26T06:37:56;4.30;99.90
12688;DHT22;6408;59.388;17.798;2023-01-26T06:40:25;4.30;99.90
12688;DHT22;6408;59.388;17.798;2023-01-26T06:42:53;4.30;99.90
12688;DHT22;6408;59.388;17.798;2023-01-26T06:45:20;4.30;99.90
12688;DHT22;6408;59.388;17.798;2023-01-26T06:47:49;4.30;99.90
12688;DHT22;6408;59.388;17.798;2023-01-26T06:50:21;4.30;99.90
12688;DHT22;6408;59.388;17.798;2023-01-26T06:52:54;4.30;99.90
12688;DHT22;6408;59.388;17.798;2023-01-26T06:55:31;4.30;99.90
12688;DHT22;6408;59.388;17.798;2023-01-26T06:58:00;4.30;99.90
12688;DHT22;6408;59.388;17.798;2023-01-26T07:00:28;4.30;99.90
12688;DHT22;6408;59.388;17.798;2023-01-26T07:02:55;4.30;99.90
12688;DHT22;6408;59.388;17.798;2023-01-26T07:05:23;4.40;99.90
12688;DHT22;6408;59.388;17.798;2023-01-26T07:07:50;4.40;99.90
12688;DHT22;6408;59.388;17.798;2023-01-26T07:10:19;4.50;99.90
12688;DHT22;6408;59.388;17.798;2023-01-26T07:12:48;4.60;99.90
12688;DHT22;6408;59.388;17.798;2023-01-26T07:15:16;4.50;99.90
12688;DHT22;6408;59.388;17.798;2023-01-26T07:17:43;4.50;99.90
12688;DHT22;6408;59.388;17.798;2023-01-26T07:20:11;4.40;99.90
12688;DHT22;6408;59.388;17.798;2023-01-26T07:22:39;4.40;99.90
12688;DHT22;6408;59.388;17.798;2023-01-26T07:25:06;4.40;99.90
12688;DHT22;6408;59.388;17.798;2023-01-26T07:27:34;4.50;99.90
12688;DHT22;6408;59.388;17.798;2023-01-26T07:30:04;4.40;99.90
12688;DHT22;6408;59.388;17.798;2023-01-26T07:32:32;4.50;99.90
12688;DHT22;6408;59.388;17.798;2023-01-26T07:35:00;4.50;99.90
12688;DHT22;6408;59.388;17.798;2023-01-26T07:37:27;4.50;99.90
12688;DHT22;6408;59.388;17.798;2023-01-26T07:39:55;4.40;99.90
12688;DHT22;6408;59.388;17.798;2023-01-26T07:42:23;4.40;99.90
12688;DHT22;6408;59.388;17.798;2023-01-26T07:44:51;4.40;99.90
12688;DHT22;6408;59.388;17.798;2023-01-26T07:47:20;4.30;99.90
12688;DHT22;6408;59.388;17.798;2023-01-26T07:49:47;4.40;99.90
12688;DHT22;6408;59.388;17.798;2023-01-26T07:52:15;4.30;99.90
12688;DHT22;6408;59.388;17.798;2023-01-26T07:54:42;4.30;99.90
12688;DHT22;6408;59.388;17.798;2023-01-26T07:57:11;4.30;99.90
12688;DHT22;6408;59.388;17.798;2023-01-26T07:59:38;4.30;99.90
12688;DHT22;6408;59.388;17.798;2023-01-26T08:02:08;4.20;99.90
12688;DHT22;6408;59.388;17.798;2023-01-26T08:04:37;4.20;99.90
12688;DHT22;6408;59.388;17.798;2023-01-26T08:07:05;4.20;99.90
12688;DHT22;6408;59.388;17.798;2023-01-26T08:09:32;4.20;99.90
12688;DHT22;6408;59.388;17.798;2023-01-26T08:12:00;4.20;99.90
12688;DHT22;6408;59.388;17.798;2023-01-26T08:14:28;4.30;99.90
12688;DHT22;6408;59.388;17.798;2023-01-26T08:16:57;4.30;99.90
12688;DHT22;6408;59.388;17.798;2023-01-26T08:19:24;4.20;99.90
12688;DHT22;6408;59.388;17.798;2023-01-26T08:21:54;4.20;99.90
12688;DHT22;6408;59.388;17.798;2023-01-26T08:24:22;4.20;99.90
12688;DHT22;6408;59.388;17.798;2023-01-26T08:26:51;4.20;99.90
12688;DHT22;6408;59.388;17.798;2023-01-26T08:29:19;4.10;99.90
12688;DHT22;6408;59.388;17.798;2023-01-26T08:31:47;4.10;99.90
12688;DHT22;6408;59.388;17.798;2023-01-26T08:34:14;4.10;99.90
12688;DHT22;6408;59.388;17.798;2023-01-26T08:36:42;4.10;99.90
12688;DHT22;6408;59.388;17.798;2023-01-26T08:39:11;4.10;99.90
12688;DHT22;6408;59.388;17.798;2023-01-26T08:41:39;4.00;99.90
12688;DHT22;6408;59.388;17.798;2023-01-26T08:44:08;4.10;99.90
12688;DHT22;6408;59.388;17.798;2023-01-26T08:46:36;3.90;99.90
12688;DHT22;6408;59.388;17.798;2023-01-26T08:49:04;3.90;99.90
12688;DHT22;6408;59.388;17.798;2023-01-26T08:51:31;3.90;99.90
12688;DHT22;6408;59.388;17.798;2023-01-26T08:53:59;3.90;99.90
12688;DHT22;6408;59.388;17.798;2023-01-26T08:56:28;4.00;99.90
12688;DHT22;6408;59.388;17.798;2023-01-26T08:58:56;4.00;99.90
12688;DHT22;6408;59.388;17.798;2023-01-26T09:01:23;4.00;99.90
12688;DHT22;6408;59.388;17.798;2023-01-26T09:03:51;4.00;99.90
12688;DHT22;6408;59.388;17.798;2023-01-26T09:06:21;3.90;99.90
12688;DHT22;6408;59.388;17.798;2023-01-26T09:08:49;3.90;99.90
12688;DHT22;6408;59.388;17.798;2023-01-26T09:11:16;4.00;99.90
12688;DHT22;6408;59.388;17.798;2023-01-26T09:13:48;4.00;99.90
12688;DHT22;6408;59.388;17.798;2023-01-26T09:16:22;4.00;99.90
12688;DHT22;6408;59.388;17.798;2023-01-26T09:18:50;4.00;99.90
12688;DHT22;6408;59.388;17.798;2023-01-26T09:21:18;4.00;99.90
12688;DHT22;6408;59.388;17.798;2023-01-26T09:23:46;4.00;99.90
12688;DHT22;6408;59.388;17.798;2023-01-26T09:26:13;3.90;99.90
12688;DHT22;6408;59.388;17.798;2023-01-26T09:28:41;4.10;99.90
12688;DHT22;6408;59.388;17.798;2023-01-26T09:31:11;4.10;99.90
12688;DHT22;6408;59.388;17.798;2023-01-26T09:33:38;4.20;99.90
12688;DHT22;6408;59.388;17.798;2023-01-26T09:36:08;4.30;99.90
12688;DHT22;6408;59.388;17.798;2023-01-26T09:38:36;4.30;99.90
12688;DHT22;6408;59.388;17.798;2023-01-26T09:41:09;4.40;99.90
12688;DHT22;6408;59.388;17.798;2023-01-26T09:43:44;4.50;99.90
12688;DHT22;6408;59.388;17.798;2023-01-26T09:46:20;4.50;99.90
12688;DHT22;6408;59.388;17.798;2023-01-26T09:48:59;4.50;99.90
12688;DHT22;6408;59.388;17.798;2023-01-26T09:51:32;4.60;99.90
12688;DHT22;6408;59.388;17.798;2023-01-26T09:54:04;4.60;99.90
12688;DHT22;6408;59.388;17.798;2023-01-26T09:56:37;4.60;99.90
12688;DHT22;6408;59.388;17.798;2023-01-26T09:59:23;4.60;99.90
12688;DHT22;6408;59.388;17.798;2023-01-26T10:02:00;4.40;99.90
12688;DHT22;6408;59.388;17.798;2023-01-26T10:04:33;4.20;99.90
12688;DHT22;6408;59.388;17.798;2023-01-26T10:07:07;4.10;99.90
12688;DHT22;6408;59.388;17.798;2023-01-26T10:09:37;4.00;99.90
12688;DHT22;6408;59.388;17.798;2023-01-26T10:12:10;3.90;99.90
12688;DHT22;6408;59.388;17.798;2023-01-26T10:14:45;3.80;99.90
12688;DHT22;6408;59.388;17.798;2023-01-26T10:17:19;3.70;99.90
12688;DHT22;6408;59.388;17.798;2023-01-26T10:19:55;3.70;99.90
12688;DHT22;6408;59.388;17.798;2023-01-26T10:22:30;3.70;99.90
12688;DHT22;6408;59.388;17.798;2023-01-26T10:24:59;3.70;99.90
12688;DHT22;6408;59.388;17.798;2023-01-26T10:27:27;3.70;99.90
12688;DHT22;6408;59.388;17.798;2023-01-26T10:29:55;3.70;99.90
12688;DHT22;6408;59.388;17.798;2023-01-26T10:32:24;3.70;99.90
12688;DHT22;6408;59.388;17.798;2023-01-26T10:34:52;3.80;99.90
12688;DHT22;6408;59.388;17.798;2023-01-26T10:37:26;3.80;99.90
12688;DHT22;6408;59.388;17.798;2023-01-26T10:39:59;3.80;99.90
12688;DHT22;6408;59.388;17.798;2023-01-26T10:42:29;3.80;99.90
12688;DHT22;6408;59.388;17.798;2023-01-26T10:44:57;3.90;99.90
12688;DHT22;6408;59.388;17.798;2023-01-26T10:47:28;4.00;99.90
12688;DHT22;6408;59.388;17.798;2023-01-26T10:50:21;4.00;99.90
12688;DHT22;6408;59.388;17.798;2023-01-26T10:52:57;3.90;99.90
12688;DHT22;6408;59.388;17.798;2023-01-26T10:55:25;3.70;99.90
12688;DHT22;6408;59.388;17.798;2023-01-26T10:57:52;3.60;99.90
12688;DHT22;6408;59.388;17.798;2023-01-26T11:00:25;3.40;99.90
12688;DHT22;6408;59.388;17.798;2023-01-26T11:03:04;3.40;99.90
12688;DHT22;6408;59.388;17.798;2023-01-26T11:05:33;3.40;99.90
12688;DHT22;6408;59.388;17.798;2023-01-26T11:08:00;3.30;99.90
12688;DHT22;6408;59.388;17.798;2023-01-26T11:10:33;3.20;99.90
12688;DHT22;6408;59.388;17.798;2023-01-26T11:13:12;3.20;99.90
12688;DHT22;6408;59.388;17.798;2023-01-26T11:15:43;3.20;99.90
12688;DHT22;6408;59.388;17.798;2023-01-26T11:18:22;3.30;99.90
12688;DHT22;6408;59.388;17.798;2023-01-26T11:21:01;3.30;99.90
12688;DHT22;6408;59.388;17.798;2023-01-26T11:23:41;3.30;99.90
12688;DHT22;6408;59.388;17.798;2023-01-26T11:26:40;3.30;99.90
12688;DHT22;6408;59.388;17.798;2023-01-26T11:32:11;3.50;99.90
12688;DHT22;6408;59.388;17.798;2023-01-26T11:34:52;3.50;99.90
12688;DHT22;6408;59.388;17.798;2023-01-26T11:37:42;3.50;99.90
12688;DHT22;6408;59.388;17.798;2023-01-26T11:40:25;3.50;99.90
12688;DHT22;6408;59.388;17.798;2023-01-26T11:43:04;3.60;99.90
12688;DHT22;6408;59.388;17.798;2023-01-26T11:45:40;3.50;99.90
12688;DHT22;6408;59.388;17.798;2023-01-26T11:48:20;3.60;99.90
12688;DHT22;6408;59.388;17.798;2023-01-26T11:50:55;3.80;99.90
12688;DHT22;6408;59.388;17.798;2023-01-26T11:53:36;3.80;99.90
12688;DHT22;6408;59.388;17.798;2023-01-26T11:56:20;3.70;99.90
12688;DHT22;6408;59.388;17.798;2023-01-26T11:58:56;3.70;99.90
12688;DHT22;6408;59.388;17.798;2023-01-26T12:01:28;3.80;99.90
12688;DHT22;6408;59.388;17.798;2023-01-26T12:03:57;3.90;99.90
12688;DHT22;6408;59.388;17.798;2023-01-26T12:06:34;3.80;99.90
12688;DHT22;6408;59.388;17.798;2023-01-26T12:09:08;3.60;99.90
12688;DHT22;6408;59.388;17.798;2023-01-26T12:11:48;3.60;99.90
12688;DHT22;6408;59.388;17.798;2023-01-26T12:14:22;3.80;99.90
12688;DHT22;6408;59.388;17.798;2023-01-26T12:17:10;3.80;99.90
12688;DHT22;6408;59.388;17.798;2023-01-26T12:19:47;3.90;99.90
12688;DHT22;6408;59.388;17.798;2023-01-26T12:22:23;3.80;99.90
12688;DHT22;6408;59.388;17.798;2023-01-26T12:24:55;3.70;99.90
12688;DHT22;6408;59.388;17.798;2023-01-26T12:27:27;3.60;99.90
12688;DHT22;6408;59.388;17.798;2023-01-26T12:30:04;3.50;99.90
12688;DHT22;6408;59.388;17.798;2023-01-26T12:32:32;3.50;99.90
12688;DHT22;6408;59.388;17.798;2023-01-26T12:35:00;3.60;99.90
12688;DHT22;6408;59.388;17.798;2023-01-26T12:37:46;3.60;99.90
12688;DHT22;6408;59.388;17.798;2023-01-26T12:40:23;3.50;99.90
12688;DHT22;6408;59.388;17.798;2023-01-26T12:43:01;3.50;99.90
12688;DHT22;6408;59.388;17.798;2023-01-26T12:45:34;3.50;99.90
12688;DHT22;6408;59.388;17.798;2023-01-26T12:48:10;3.50;99.90
12688;DHT22;6408;59.388;17.798;2023-01-26T12:50:40;3.50;99.90
12688;DHT22;6408;59.388;17.798;2023-01-26T12:53:17;3.30;99.90
12688;DHT22;6408;59.388;17.798;2023-01-26T12:55:50;3.30;99.90
12688;DHT22;6408;59.388;17.798;2023-01-26T12:58:21;3.30;99.90
12688;DHT22;6408;59.388;17.798;2023-01-26T13:00:52;3.20;99.90
12688;DHT22;6408;59.388;17.798;2023-01-26T13:03:25;3.20;99.90
12688;DHT22;6408;59.388;17.798;2023-01-26T13:05:56;3.20;99.90
12688;DHT22;6408;59.388;17.798;2023-01-26T13:08:46;3.20;99.90
12688;DHT22;6408;59.388;17.798;2023-01-26T13:11:40;3.20;99.90
12688;DHT22;6408;59.388;17.798;2023-01-26T13:14:24;3.10;99.90
12688;DHT22;6408;59.388;17.798;2023-01-26T13:16:52;3.00;99.90
12688;DHT22;6408;59.388;17.798;2023-01-26T13:19:50;3.00;99.90
12688;DHT22;6408;59.388;17.798;2023-01-26T13:22:37;3.00;99.90
12688;DHT22;6408;59.388;17.798;2023-01-26T13:25:16;2.90;99.90
12688;DHT22;6408;59.388;17.798;2023-01-26T13:27:46;2.90;99.90
12688;DHT22;6408;59.388;17.798;2023-01-26T13:30:41;2.80;99.90
12688;DHT22;6408;59.388;17.798;2023-01-26T13:33:12;2.80;99.90
12688;DHT22;6408;59.388;17.798;2023-01-26T13:35:42;2.80;99.90
12688;DHT22;6408;59.388;17.798;2023-01-26T13:38:17;2.80;99.90
12688;DHT22;6408;59.388;17.798;2023-01-26T13:40:48;2.70;99.90
12688;DHT22;6408;59.388;17.798;2023-01-26T13:43:20;2.60;99.90
12688;DHT22;6408;59.388;17.798;2023-01-26T13:45:59;2.60;99.90
12688;DHT22;6408;59.388;17.798;2023-01-26T13:48:39;2.60;99.90
12688;DHT22;6408;59.388;17.798;2023-01-26T13:51:14;2.70;99.90
12688;DHT22;6408;59.388;17.798;2023-01-26T13:53:47;2.60;99.90
12688;DHT22;6408;59.388;17.798;2023-01-26T13:56:32;2.60;99.90
12688;DHT22;6408;59.388;17.798;2023-01-26T13:59:08;2.50;99.90
12688;DHT22;6408;59.388;17.798;2023-01-26T14:01:41;2.50;99.90
12688;DHT22;6408;59.388;17.798;2023-01-26T14:04:13;2.40;99.90
12688;DHT22;6408;59.388;17.798;2023-01-26T14:06:44;2.50;99.90
12688;DHT22;6408;59.388;17.798;2023-01-26T14:09:13;2.50;99.90
12688;DHT22;6408;59.388;17.798;2023-01-26T14:11:44;2.40;99.90
12688;DHT22;6408;59.388;17.798;2023-01-26T14:14:23;2.40;99.90
12688;DHT22;6408;59.388;17.798;2023-01-26T14:16:51;2.30;99.90
12688;DHT22;6408;59.388;17.798;2023-01-26T14:19:20;2.30;99.90
12688;DHT22;6408;59.388;17.798;2023-01-26T14:21:51;2.20;99.90
12688;DHT22;6408;59.388;17.798;2023-01-26T14:24:24;2.20;99.90
12688;DHT22;6408;59.388;17.798;2023-01-26T14:26:54;2.20;99.90
12688;DHT22;6408;59.388;17.798;2023-01-26T14:29:23;2.10;99.90
12688;DHT22;6408;59.388;17.798;2023-01-26T14:31:52;2.10;99.90
12688;DHT22;6408;59.388;17.798;2023-01-26T14:34:21;2.10;99.90
12688;DHT22;6408;59.388;17.798;2023-01-26T14:37:04;2.10;99.90
12688;DHT22;6408;59.388;17.798;2023-01-26T14:39:32;2.10;99.90
12688;DHT22;6408;59.388;17.798;2023-01-26T14:42:02;2.00;99.90
12688;DHT22;6408;59.388;17.798;2023-01-26T14:44:30;1.80;99.90
12688;DHT22;6408;59.388;17.798;2023-01-26T14:47:01;1.80;99.90
12688;DHT22;6408;59.388;17.798;2023-01-26T14:49:37;1.70;99.90
12688;DHT22;6408;59.388;17.798;2023-01-26T14:52:17;1.60;99.90
12688;DHT22;6408;59.388;17.798;2023-01-26T14:54:49;1.50;99.90
12688;DHT22;6408;59.388;17.798;2023-01-26T14:57:22;1.50;99.90
12688;DHT22;6408;59.388;17.798;2023-01-26T14:59:54;1.40;99.90
12688;DHT22;6408;59.388;17.798;2023-01-26T15:02:23;1.40;99.90
12688;DHT22;6408;59.388;17.798;2023-01-26T15:04:53;1.30;99.90
12688;DHT22;6408;59.388;17.798;2023-01-26T15:07:35;1.30;99.90
12688;DHT22;6408;59.388;17.798;2023-01-26T15:10:25;1.30;99.90
12688;DHT22;6408;59.388;17.798;2023-01-26T15:13:01;1.30;99.90
12688;DHT22;6408;59.388;17.798;2023-01-26T15:15:32;1.30;99.90
12688;DHT22;6408;59.388;17.798;2023-01-26T15:18:02;1.20;99.90
12688;DHT22;6408;59.388;17.798;2023-01-26T15:20:38;1.20;99.90
12688;DHT22;6408;59.388;17.798;2023-01-26T15:23:30;1.10;99.90
12688;DHT22;6408;59.388;17.798;2023-01-26T15:26:06;1.20;99.90
12688;DHT22;6408;59.388;17.798;2023-01-26T15:28:36;1.20;99.90
12688;DHT22;6408;59.388;17.798;2023-01-26T15:31:05;1.10;99.90
12688;DHT22;6408;59.388;17.798;2023-01-26T15:33:38;1.00;99.90
12688;DHT22;6408;59.388;17.798;2023-01-26T15:36:20;0.90;99.90
12688;DHT22;6408;59.388;17.798;2023-01-26T15:38:48;0.90;99.90
12688;DHT22;6408;59.388;17.798;2023-01-26T15:41:16;0.90;99.90
12688;DHT22;6408;59.388;17.798;2023-01-26T15:43:45;0.80;99.90
12688;DHT22;6408;59.388;17.798;2023-01-26T15:46:13;0.80;99.90
12688;DHT22;6408;59.388;17.798;2023-01-26T15:48:40;0.80;99.90
12688;DHT22;6408;59.388;17.798;2023-01-26T15:51:11;0.80;99.90
12688;DHT22;6408;59.388;17.798;2023-01-26T15:53:39;0.80;99.90
12688;DHT22;6408;59.388;17.798;2023-01-26T15:56:10;0.80;99.90
12688;DHT22;6408;59.388;17.798;2023-01-26T15:58:39;0.70;99.90
12688;DHT22;6408;59.388;17.798;2023-01-26T16:01:11;0.60;99.90
12688;DHT22;6408;59.388;17.798;2023-01-26T16:03:40;0.60;99.90
12688;DHT22;6408;59.388;17.798;2023-01-26T16:06:22;0.60;99.90
12688;DHT22;6408;59.388;17.798;2023-01-26T16:08:51;0.60;99.90
12688;DHT22;6408;59.388;17.798;2023-01-26T16:11:19;0.60;99.90
12688;DHT22;6408;59.388;17.798;2023-01-26T16:13:47;0.60;99.90
12688;DHT22;6408;59.388;17.798;2023-01-26T16:16:16;0.40;99.90